createdAt,value
2022-08-10T00:00:40.391Z,9.661460
2022-08-10T00:01:40.457Z,9.661575
2022-08-10T00:02:40.449Z,9.661521
2022-08-10T00:03:40.407Z,9.661513
2022-08-10T00:04:40.391Z,9.661498
2022-08-10T00:05:43.329Z,9.661481
2022-08-10T00:06:41.378Z,9.661452
2022-08-10T00:07:40.521Z,9.661493
2022-08-10T00:08:40.375Z,9.661530
2022-08-10T00:09:49.997Z,9.661571
2022-08-10T00:10:40.350Z,9.661518
2022-08-10T00:11:40.327Z,9.661516
2022-08-10T00:12:54.567Z,9.661484
2022-08-10T00:13:40.363Z,9.661516
2022-08-10T00:14:40.316Z,9.661471
2022-08-10T00:15:44.656Z,9.661496
2022-08-10T00:16:40.318Z,9.661485
2022-08-10T00:17:40.376Z,9.661568
2022-08-10T00:18:40.321Z,9.661715
2022-08-10T00:20:02.383Z,9.661565
2022-08-10T00:20:41.269Z,9.661512
2022-08-10T00:21:40.277Z,9.661593
2022-08-10T00:22:52.971Z,9.661542
2022-08-10T00:23:40.271Z,9.661582
2022-08-10T00:24:43.209Z,9.661563
2022-08-10T00:25:40.260Z,9.661753
2022-08-10T00:27:50.400Z,9.661474
2022-08-10T00:28:01.917Z,9.661508
2022-08-10T00:28:41.229Z,9.661464
2022-08-10T00:29:41.258Z,9.661481
2022-08-10T00:30:40.234Z,9.661436
2022-08-10T00:31:58.078Z,9.661512
2022-08-10T00:32:41.233Z,9.661490
2022-08-10T00:33:41.253Z,9.661509
2022-08-10T00:34:40.221Z,9.661323
2022-08-10T00:35:40.207Z,9.661447
2022-08-10T00:36:40.183Z,9.661423
2022-08-10T00:37:40.203Z,9.661459
2022-08-10T00:38:40.261Z,9.661421
2022-08-10T00:39:40.244Z,9.661465
2022-08-10T00:40:40.186Z,9.661467
2022-08-10T00:41:40.176Z,9.661325
2022-08-10T00:42:40.205Z,9.661462
2022-08-10T00:43:40.148Z,9.661530
2022-08-10T00:44:40.166Z,9.661738
2022-08-10T00:45:40.160Z,9.661583
2022-08-10T00:46:40.137Z,9.661276
2022-08-10T00:47:40.142Z,9.661322
2022-08-10T00:48:40.113Z,9.661176
2022-08-10T00:49:40.103Z,9.661195
2022-08-10T00:50:40.133Z,9.661407
2022-08-10T00:51:43.245Z,9.661697
2022-08-10T00:52:41.085Z,9.661695
2022-08-10T00:53:40.110Z,9.661690
2022-08-10T00:54:40.098Z,9.661537
2022-08-10T00:57:10.010Z,9.661443
2022-08-10T00:57:16.099Z,9.661331
2022-08-10T00:57:41.067Z,9.661390
2022-08-10T00:58:40.065Z,9.661917
2022-08-10T00:59:58.819Z,9.661929
2022-08-10T01:00:41.055Z,9.661569
2022-08-10T01:02:09.868Z,9.661556
2022-08-10T01:02:42.094Z,9.661585
2022-08-10T01:04:36.265Z,9.661581
2022-08-10T01:04:59.703Z,9.661557
2022-08-10T01:05:51.360Z,9.661572
2022-08-10T01:06:41.063Z,9.661567
2022-08-10T01:07:40.034Z,9.661568
2022-08-10T01:08:39.999Z,9.661593
2022-08-10T01:09:40.007Z,9.661566
2022-08-10T01:10:40.006Z,9.661594
2022-08-10T01:12:41.757Z,9.661534
2022-08-10T01:12:47.051Z,9.661536
2022-08-10T01:13:39.993Z,9.661565
2022-08-10T01:14:39.969Z,9.661547
2022-08-10T01:15:39.970Z,9.661558
2022-08-10T01:16:39.947Z,9.661542
2022-08-10T01:17:49.813Z,9.661563
2022-08-10T01:18:40.934Z,9.661531
2022-08-10T01:19:39.938Z,9.661554
2022-08-10T01:20:39.925Z,9.661571
2022-08-10T01:21:39.915Z,9.661580
2022-08-10T01:22:39.923Z,9.661543
2022-08-10T01:23:39.941Z,9.661550
2022-08-10T01:24:39.895Z,9.661508
2022-08-10T01:26:12.195Z,9.661415
2022-08-10T01:26:40.821Z,9.661565
2022-08-10T01:27:39.934Z,9.661596
2022-08-10T01:28:39.995Z,9.661625
2022-08-10T01:29:39.879Z,9.661552
2022-08-10T01:30:39.883Z,9.661547
2022-08-10T01:31:39.889Z,9.661586
2022-08-10T01:32:39.888Z,9.661572
2022-08-10T01:33:58.351Z,9.661616
2022-08-10T01:34:40.914Z,9.661633
2022-08-10T01:35:39.839Z,9.661554
2022-08-10T01:36:39.828Z,9.661555
2022-08-10T01:37:39.829Z,9.661545
2022-08-10T01:38:39.829Z,9.661547
2022-08-10T01:39:39.999Z,9.661557
2022-08-10T01:40:39.820Z,9.661580
2022-08-10T01:41:46.244Z,9.661599
2022-08-10T01:42:39.816Z,9.661611
2022-08-10T01:43:39.814Z,9.661628
2022-08-10T01:44:39.805Z,9.661645
2022-08-10T01:45:45.737Z,9.661572
2022-08-10T01:46:40.788Z,9.661604
2022-08-10T01:47:39.809Z,9.661609
2022-08-10T01:48:39.784Z,9.661523
2022-08-10T01:49:39.787Z,9.661540
2022-08-10T01:50:53.401Z,9.661513
2022-08-10T01:51:40.753Z,9.661603
2022-08-10T01:52:39.756Z,9.661559
2022-08-10T01:53:40.074Z,9.661523
2022-08-10T01:54:39.750Z,9.661516
2022-08-10T01:55:39.764Z,9.661575
2022-08-10T01:56:39.755Z,9.661629
2022-08-10T01:57:39.747Z,9.661569
2022-08-10T01:58:39.735Z,9.661608
2022-08-10T01:59:39.719Z,9.661615
2022-08-10T02:00:39.705Z,9.661604
2022-08-10T02:01:39.763Z,9.661563
2022-08-10T02:02:39.690Z,9.661556
2022-08-10T02:04:05.165Z,9.661426
2022-08-10T02:04:40.682Z,9.661509
2022-08-10T02:05:39.671Z,9.661583
2022-08-10T02:06:39.677Z,9.661655
2022-08-10T02:07:39.766Z,9.661639
2022-08-10T02:08:39.653Z,9.661571
2022-08-10T02:09:39.653Z,9.661501
2022-08-10T02:10:39.642Z,9.661502
2022-08-10T02:11:57.561Z,9.661530
2022-08-10T02:12:40.676Z,9.661591
2022-08-10T02:13:39.661Z,9.661643
2022-08-10T02:14:39.633Z,9.661586
2022-08-10T02:15:39.638Z,9.661579
2022-08-10T02:16:39.606Z,9.661570
2022-08-10T02:17:57.625Z,9.661564
2022-08-10T02:18:40.624Z,9.661633
2022-08-10T02:19:39.596Z,9.661681
2022-08-10T02:20:39.613Z,9.661671
2022-08-10T02:21:39.571Z,9.661592
2022-08-10T02:22:40.579Z,9.661588
2022-08-10T02:23:39.577Z,9.661605
2022-08-10T02:24:39.570Z,9.661539
2022-08-10T02:25:40.865Z,9.661393
2022-08-10T02:26:39.564Z,9.661507
2022-08-10T02:27:40.131Z,9.661495
2022-08-10T02:28:39.533Z,9.661481
2022-08-10T02:29:42.466Z,9.661398
2022-08-10T02:30:39.597Z,9.661447
2022-08-10T02:31:39.519Z,9.661474
2022-08-10T02:32:39.760Z,9.661485
2022-08-10T02:33:39.529Z,9.661442
2022-08-10T02:34:40.649Z,9.661437
2022-08-10T02:35:53.695Z,9.661406
2022-08-10T02:36:39.513Z,9.661477
2022-08-10T02:37:39.521Z,9.661409
2022-08-10T02:38:57.437Z,9.661495
2022-08-10T02:39:40.572Z,9.661447
2022-08-10T02:45:13.341Z,9.661550
2022-08-10T02:45:15.315Z,9.661530
2022-08-10T02:45:18.778Z,9.661497
2022-08-10T02:45:26.337Z,9.661503
2022-08-10T02:45:27.814Z,9.661465
2022-08-10T02:45:41.472Z,9.661498
2022-08-10T02:46:39.456Z,9.661450
2022-08-10T02:47:51.729Z,9.661500
2022-08-10T02:48:40.446Z,9.661423
2022-08-10T02:49:39.431Z,9.661528
2022-08-10T02:50:39.451Z,9.661502
2022-08-10T02:52:07.406Z,9.661589
2022-08-10T02:52:40.418Z,9.661435
2022-08-10T02:53:54.887Z,9.661588
2022-08-10T02:54:39.410Z,9.661521
2022-08-10T02:55:39.397Z,9.661533
2022-08-10T02:56:39.409Z,9.661605
2022-08-10T02:58:13.398Z,9.661513
2022-08-10T02:58:39.385Z,9.661765
2022-08-10T03:00:13.655Z,9.661696
2022-08-10T03:00:39.401Z,9.661442
2022-08-10T03:01:39.426Z,9.661733
2022-08-10T03:02:39.363Z,9.661794
2022-08-10T03:03:39.353Z,9.661750
2022-08-10T03:04:55.855Z,9.662179
2022-08-10T03:05:40.373Z,9.662418
2022-08-10T03:06:39.330Z,9.662364
2022-08-10T03:07:43.173Z,9.662477
2022-08-10T03:08:39.318Z,9.662463
2022-08-10T03:09:39.299Z,9.662317
2022-08-10T03:10:39.832Z,9.662176
2022-08-10T03:12:35.595Z,9.661867
2022-08-10T03:12:40.310Z,9.661868
2022-08-10T03:13:39.282Z,9.661780
2022-08-10T03:14:39.297Z,9.661542
2022-08-10T03:15:39.285Z,9.661556
2022-08-10T03:16:39.296Z,9.661748
2022-08-10T03:17:39.292Z,9.661734
2022-08-10T03:18:39.243Z,9.661877
2022-08-10T03:20:34.944Z,9.662061
2022-08-10T03:20:40.507Z,9.661748
2022-08-10T03:21:40.352Z,9.661597
2022-08-10T03:22:39.240Z,9.661792
2022-08-10T03:23:39.223Z,9.661779
2022-08-10T03:24:39.235Z,9.661745
2022-08-10T03:25:39.207Z,9.662067
2022-08-10T03:26:39.208Z,9.661995
2022-08-10T03:27:39.215Z,9.661888
2022-08-10T03:28:39.191Z,9.661611
2022-08-10T03:30:28.597Z,9.661551
2022-08-10T03:30:40.190Z,9.661542
2022-08-10T03:31:40.149Z,9.661746
2022-08-10T03:32:39.775Z,9.661636
2022-08-10T03:33:39.165Z,9.661551
2022-08-10T03:34:40.103Z,9.661536
2022-08-10T03:35:39.160Z,9.661619
2022-08-10T03:36:42.185Z,9.661530
2022-08-10T03:37:40.194Z,9.661552
2022-08-10T03:38:39.147Z,9.661491
2022-08-10T03:39:39.178Z,9.661539
2022-08-10T03:40:46.445Z,9.661486
2022-08-10T03:41:40.131Z,9.661549
2022-08-10T03:42:39.122Z,9.661429
2022-08-10T03:43:39.145Z,9.661494
2022-08-10T03:44:39.104Z,9.661553
2022-08-10T03:45:49.489Z,9.661522
2022-08-10T03:46:40.101Z,9.661560
2022-08-10T03:47:39.102Z,9.661540
2022-08-10T03:48:48.470Z,9.661524
2022-08-10T03:49:40.083Z,9.661487
2022-08-10T03:50:51.359Z,9.661430
2022-08-10T03:51:39.080Z,9.661616
2022-08-10T03:52:39.068Z,9.661376
2022-08-10T03:54:04.749Z,9.661271
2022-08-10T03:54:40.088Z,9.661478
2022-08-10T03:56:29.460Z,9.661501
2022-08-10T03:56:40.069Z,9.661516
2022-08-10T03:57:49.457Z,9.661636
2022-08-10T03:58:40.025Z,9.661740
2022-08-10T03:59:40.048Z,9.661620
2022-08-10T04:00:39.051Z,9.661512
2022-08-10T04:02:45.176Z,9.661604
2022-08-10T04:02:45.459Z,9.661659
2022-08-10T04:03:39.005Z,9.661529
2022-08-10T04:04:39.019Z,9.661528
2022-08-10T04:05:40.019Z,9.661574
2022-08-10T04:06:39.059Z,9.661471
2022-08-10T04:07:38.977Z,9.661512
2022-08-10T04:08:38.978Z,9.661539
2022-08-10T04:09:53.920Z,9.661529
2022-08-10T04:10:39.991Z,9.661560
2022-08-10T04:11:40.598Z,9.661507
2022-08-10T04:12:38.979Z,9.661183
2022-08-10T04:13:39.050Z,9.661305
2022-08-10T04:14:50.358Z,9.661407
2022-08-10T04:15:39.944Z,9.661316
2022-08-10T04:16:38.930Z,9.661300
2022-08-10T04:18:01.258Z,9.661337
2022-08-10T04:18:39.923Z,9.661414
2022-08-10T04:19:38.914Z,9.661385
2022-08-10T04:20:38.941Z,9.661258
2022-08-10T04:21:38.912Z,9.661416
2022-08-10T04:22:38.932Z,9.661437
2022-08-10T04:23:38.877Z,9.661503
2022-08-10T04:24:38.905Z,9.661515
2022-08-10T04:25:38.891Z,9.661537
2022-08-10T04:26:38.878Z,9.661508
2022-08-10T04:27:38.968Z,9.661615
2022-08-10T04:28:38.854Z,9.661506
2022-08-10T04:29:38.864Z,9.661623
2022-08-10T04:30:38.869Z,9.661428
2022-08-10T04:31:38.843Z,9.661222
2022-08-10T04:32:38.851Z,9.661284
2022-08-10T04:33:38.837Z,9.661208
2022-08-10T04:34:38.840Z,9.661313
2022-08-10T04:35:38.935Z,9.661184
2022-08-10T04:36:38.805Z,9.660936
2022-08-10T04:37:46.899Z,9.660954
2022-08-10T04:38:39.783Z,9.660982
2022-08-10T04:39:38.851Z,9.661094
2022-08-10T04:40:38.791Z,9.661030
2022-08-10T04:41:38.830Z,9.661258
2022-08-10T04:42:39.770Z,9.661365
2022-08-10T04:43:38.760Z,9.661521
2022-08-10T04:44:38.753Z,9.661530
2022-08-10T04:45:49.650Z,9.661620
2022-08-10T04:46:56.519Z,9.661470
2022-08-10T04:47:57.366Z,9.661587
2022-08-10T04:48:43.377Z,9.661399
2022-08-10T04:49:55.727Z,9.661382
2022-08-10T04:50:39.719Z,9.661319
2022-08-10T04:51:38.713Z,9.661309
2022-08-10T04:52:38.827Z,9.661495
2022-08-10T04:54:02.683Z,9.661412
2022-08-10T04:54:40.244Z,9.661649
2022-08-10T04:55:38.708Z,9.661327
2022-08-10T04:56:39.621Z,9.661501
2022-08-10T04:57:38.706Z,9.661414
2022-08-10T04:58:38.692Z,9.661413
2022-08-10T04:59:38.671Z,9.661507
2022-08-10T05:00:38.752Z,9.661378
2022-08-10T05:02:30.575Z,9.661285
2022-08-10T05:02:40.118Z,9.661595
2022-08-10T05:04:35.841Z,9.661593
2022-08-10T05:04:39.634Z,9.661436
2022-08-10T05:05:39.641Z,9.661513
2022-08-10T05:06:38.627Z,9.661506
2022-08-10T05:07:53.935Z,9.661492
2022-08-10T05:08:39.664Z,9.661482
2022-08-10T05:10:03.661Z,9.661517
2022-08-10T05:10:39.624Z,9.661480
2022-08-10T05:11:38.607Z,9.661501
2022-08-10T05:12:39.296Z,9.661514
2022-08-10T05:13:38.620Z,9.661538
2022-08-10T05:14:38.591Z,9.661480
2022-08-10T05:15:38.589Z,9.661508
2022-08-10T05:16:38.627Z,9.661500
2022-08-10T05:17:38.577Z,9.661562
2022-08-10T05:18:39.135Z,9.661614
2022-08-10T05:20:02.823Z,9.661521
2022-08-10T05:20:39.562Z,9.661563
2022-08-10T05:22:03.024Z,9.661520
2022-08-10T05:22:38.983Z,9.661469
2022-08-10T05:23:38.558Z,9.661456
2022-08-10T05:24:38.556Z,9.661438
2022-08-10T05:25:38.546Z,9.661478
2022-08-10T05:27:00.172Z,9.661474
2022-08-10T05:27:40.507Z,9.661491
2022-08-10T05:28:38.515Z,9.661508
2022-08-10T05:29:38.529Z,9.661498
2022-08-10T05:30:38.531Z,9.661463
2022-08-10T05:31:38.490Z,9.661484
2022-08-10T05:32:57.194Z,9.661527
2022-08-10T05:33:38.497Z,9.661516
2022-08-10T05:34:38.501Z,9.661498
2022-08-10T05:35:56.658Z,9.661548
2022-08-10T05:36:39.468Z,9.661538
2022-08-10T05:38:10.158Z,9.661432
2022-08-10T05:38:38.457Z,9.661514
2022-08-10T05:39:38.530Z,9.661572
2022-08-10T05:40:38.470Z,9.661547
2022-08-10T05:41:44.163Z,9.661522
2022-08-10T05:42:40.428Z,9.661540
2022-08-10T05:43:38.437Z,9.661510
2022-08-10T05:44:38.443Z,9.661467
2022-08-10T05:46:18.959Z,9.661483
2022-08-10T05:46:39.427Z,9.661535
2022-08-10T05:48:53.923Z,9.661549
2022-08-10T05:48:55.006Z,9.661474
2022-08-10T05:49:39.424Z,9.661448
2022-08-10T05:50:38.382Z,9.661451
2022-08-10T05:51:38.396Z,9.661523
2022-08-10T05:52:38.402Z,9.661545
2022-08-10T05:54:03.063Z,9.661530
2022-08-10T05:54:39.400Z,9.661519
2022-08-10T05:55:38.401Z,9.661546
2022-08-10T05:56:54.727Z,9.661523
2022-08-10T05:57:39.361Z,9.661544
2022-08-10T05:58:38.350Z,9.661532
2022-08-10T06:00:11.206Z,9.661520
2022-08-10T06:00:41.719Z,9.661526
2022-08-10T06:01:38.379Z,9.661584
2022-08-10T06:02:38.329Z,9.661597
2022-08-10T06:03:38.318Z,9.661600
2022-08-10T06:04:38.328Z,9.661564
2022-08-10T06:05:38.330Z,9.661601
2022-08-10T06:06:38.415Z,9.661549
2022-08-10T06:07:38.521Z,9.661534
2022-08-10T06:08:38.303Z,9.661562
2022-08-10T06:09:38.299Z,9.661662
2022-08-10T06:12:23.444Z,9.661713
2022-08-10T06:12:25.271Z,9.661784
2022-08-10T06:12:55.233Z,9.661835
2022-08-10T06:13:57.893Z,9.661631
2022-08-10T06:14:39.260Z,9.661626
2022-08-10T06:15:52.302Z,9.661588
2022-08-10T06:16:38.290Z,9.661524
2022-08-10T06:17:38.346Z,9.661477
2022-08-10T06:18:38.248Z,9.661606
2022-08-10T06:19:38.241Z,9.661663
2022-08-10T06:20:38.231Z,9.661665
2022-08-10T06:21:38.224Z,9.661476
2022-08-10T06:22:38.426Z,9.661517
2022-08-10T06:23:38.219Z,9.661480
2022-08-10T06:24:50.985Z,9.661480
2022-08-10T06:26:10.292Z,9.661510
2022-08-10T06:26:39.208Z,9.661529
2022-08-10T06:27:38.200Z,9.661493
2022-08-10T06:28:38.341Z,9.661398
2022-08-10T06:29:38.202Z,9.661411
2022-08-10T06:30:38.185Z,9.661434
2022-08-10T06:31:48.548Z,9.661576
2022-08-10T06:32:38.226Z,9.661654
2022-08-10T06:33:38.189Z,9.661591
2022-08-10T06:34:38.152Z,9.661525
2022-08-10T06:35:38.159Z,9.661666
2022-08-10T06:36:38.145Z,9.661369
2022-08-10T06:37:38.130Z,9.661459
2022-08-10T06:38:38.203Z,9.661397
2022-08-10T06:39:38.267Z,9.661501
2022-08-10T06:40:38.116Z,9.661580
2022-08-10T06:41:57.967Z,9.661472
2022-08-10T06:42:38.125Z,9.661371
2022-08-10T06:43:38.113Z,9.661468
2022-08-10T06:44:38.230Z,9.661298
2022-08-10T06:45:38.107Z,9.661369
2022-08-10T06:46:39.099Z,9.661370
2022-08-10T06:47:38.148Z,9.661320
2022-08-10T06:48:38.116Z,9.661452
2022-08-10T06:49:38.082Z,9.661537
2022-08-10T06:50:56.384Z,9.661424
2022-08-10T06:51:38.072Z,9.661309
2022-08-10T06:52:38.195Z,9.661142
2022-08-10T06:53:52.915Z,9.661392
2022-08-10T06:54:39.052Z,9.660967
2022-08-10T06:55:49.989Z,9.661266
2022-08-10T06:56:46.879Z,9.661427
2022-08-10T06:57:40.045Z,9.661404
2022-08-10T06:58:38.013Z,9.661439
2022-08-10T06:59:38.032Z,9.661705
2022-08-10T07:00:38.056Z,9.661779
2022-08-10T07:01:38.331Z,9.661666
2022-08-10T07:02:38.007Z,9.661670
2022-08-10T07:03:37.999Z,9.661561
2022-08-10T07:04:38.014Z,9.661467
2022-08-10T07:05:38.012Z,9.661436
2022-08-10T07:06:38.013Z,9.661436
2022-08-10T07:07:37.997Z,9.661529
2022-08-10T07:08:37.973Z,9.661535
2022-08-10T07:09:37.986Z,9.661530
2022-08-10T07:10:45.820Z,9.661450
2022-08-10T07:11:38.995Z,9.661392
2022-08-10T07:12:37.953Z,9.661419
2022-08-10T07:14:14.305Z,9.661418
2022-08-10T07:14:38.935Z,9.661405
2022-08-10T07:16:00.304Z,9.661317
2022-08-10T07:16:37.967Z,9.661412
2022-08-10T07:17:39.721Z,9.661490
2022-08-10T07:18:38.939Z,9.661526
2022-08-10T07:19:50.007Z,9.661433
2022-08-10T07:20:38.942Z,9.661348
2022-08-10T07:21:38.924Z,9.661237
2022-08-10T07:23:54.584Z,9.661326
2022-08-10T07:23:56.018Z,9.661239
2022-08-10T07:24:38.892Z,9.661186
2022-08-10T07:25:37.895Z,9.661191
2022-08-10T07:26:37.996Z,9.661313
2022-08-10T07:27:58.723Z,9.661420
2022-08-10T07:28:37.921Z,9.661512
2022-08-10T07:29:54.400Z,9.661543
2022-08-10T07:30:38.846Z,9.661666
2022-08-10T07:31:56.593Z,9.661508
2022-08-10T07:32:38.840Z,9.661497
2022-08-10T07:33:37.857Z,9.661353
2022-08-10T07:34:37.844Z,9.661471
2022-08-10T07:35:42.917Z,9.661432
2022-08-10T07:36:38.863Z,9.661362
2022-08-10T07:37:37.813Z,9.661080
2022-08-10T07:38:37.847Z,9.661254
2022-08-10T07:40:03.477Z,9.661084
2022-08-10T07:40:37.932Z,9.661223
2022-08-10T07:41:37.826Z,9.661428
2022-08-10T07:42:42.075Z,9.661459
2022-08-10T07:43:39.833Z,9.661368
2022-08-10T07:44:37.791Z,9.661386
2022-08-10T07:45:37.815Z,9.661322
2022-08-10T07:46:37.781Z,9.661440
2022-08-10T07:47:52.345Z,9.661439
2022-08-10T07:48:38.805Z,9.661380
2022-08-10T07:49:37.802Z,9.661363
2022-08-10T07:50:37.768Z,9.661350
2022-08-10T07:51:37.761Z,9.661370
2022-08-10T07:52:37.911Z,9.661459
2022-08-10T07:53:37.863Z,9.661423
2022-08-10T07:54:37.754Z,9.661385
2022-08-10T07:56:01.457Z,9.661424
2022-08-10T07:56:49.049Z,9.661393
2022-08-10T07:57:40.345Z,9.661444
2022-08-10T07:58:38.728Z,9.661488
2022-08-10T07:59:37.713Z,9.661386
2022-08-10T08:00:38.702Z,9.661428
2022-08-10T08:01:37.759Z,9.661369
2022-08-10T08:02:37.803Z,9.661400
2022-08-10T08:03:37.702Z,9.661411
2022-08-10T08:04:37.686Z,9.661412
2022-08-10T08:05:57.939Z,9.661386
2022-08-10T08:06:38.669Z,9.661405
2022-08-10T08:07:37.654Z,9.661401
2022-08-10T08:08:37.677Z,9.661392
2022-08-10T08:09:37.679Z,9.661411
2022-08-10T08:10:38.651Z,9.661427
2022-08-10T08:11:37.696Z,9.661415
2022-08-10T08:12:38.514Z,9.661433
2022-08-10T08:13:37.650Z,9.661423
2022-08-10T08:14:37.632Z,9.661567
2022-08-10T08:16:15.663Z,9.661579
2022-08-10T08:16:38.635Z,9.661434
2022-08-10T08:17:37.613Z,9.661398
2022-08-10T08:18:37.618Z,9.661338
2022-08-10T08:19:45.805Z,9.661418
2022-08-10T08:20:38.600Z,9.661526
2022-08-10T08:24:06.972Z,9.661563
2022-08-10T08:24:07.661Z,9.661598
2022-08-10T08:24:15.034Z,9.661552
2022-08-10T08:24:38.960Z,9.661578
2022-08-10T08:25:37.580Z,9.661549
2022-08-10T08:26:37.565Z,9.661471
2022-08-10T08:27:37.570Z,9.661572
2022-08-10T08:28:37.555Z,9.661420
2022-08-10T08:29:37.666Z,9.661664
2022-08-10T08:30:37.547Z,9.661517
2022-08-10T08:31:37.550Z,9.661325
2022-08-10T08:32:38.547Z,9.661516
2022-08-10T08:33:41.526Z,9.661459
2022-08-10T08:34:37.529Z,9.661488
2022-08-10T08:35:37.542Z,9.661438
2022-08-10T08:36:37.522Z,9.661480
2022-08-10T08:38:29.672Z,9.661516
2022-08-10T08:38:38.521Z,9.661482
2022-08-10T08:39:37.662Z,9.661476
2022-08-10T08:40:37.523Z,9.661590
2022-08-10T08:41:37.501Z,9.661569
2022-08-10T08:42:37.737Z,9.661759
2022-08-10T08:43:37.477Z,9.661649
2022-08-10T08:44:37.479Z,9.661565
2022-08-10T08:45:37.520Z,9.661486
2022-08-10T08:46:38.609Z,9.661518
2022-08-10T08:48:04.769Z,9.661554
2022-08-10T08:48:37.450Z,9.661677
2022-08-10T08:50:07.520Z,9.661683
2022-08-10T08:50:38.550Z,9.661404
2022-08-10T08:52:06.332Z,9.661501
2022-08-10T08:52:38.512Z,9.661630
2022-08-10T08:54:02.314Z,9.661540
2022-08-10T08:54:37.426Z,9.661551
2022-08-10T08:55:56.119Z,9.661487
2022-08-10T08:56:38.457Z,9.661569
2022-08-10T08:57:50.150Z,9.661719
2022-08-10T08:58:38.405Z,9.661577
2022-08-10T08:59:37.426Z,9.661440
2022-08-10T09:00:37.447Z,9.661454
2022-08-10T09:01:40.328Z,9.661523
2022-08-10T09:02:37.596Z,9.661408
2022-08-10T09:03:37.413Z,9.661525
2022-08-10T09:04:37.406Z,9.661524
2022-08-10T09:05:59.656Z,9.661509
2022-08-10T09:06:38.395Z,9.661526
2022-08-10T09:08:00.768Z,9.661587
2022-08-10T09:08:37.418Z,9.661598
2022-08-10T09:09:37.397Z,9.661484
2022-08-10T09:10:37.857Z,9.661339
2022-08-10T09:11:37.371Z,9.661171
2022-08-10T09:12:37.529Z,9.661407
2022-08-10T09:13:37.382Z,9.661580
2022-08-10T09:14:37.376Z,9.661387
2022-08-10T09:15:39.776Z,9.661304
2022-08-10T09:16:37.355Z,9.661312
2022-08-10T09:17:37.482Z,9.661372
2022-08-10T09:18:37.347Z,9.661241
2022-08-10T09:19:37.354Z,9.661117
2022-08-10T09:20:37.337Z,9.661374
2022-08-10T09:21:43.188Z,9.661306
2022-08-10T09:22:38.398Z,9.661505
2022-08-10T09:24:04.955Z,9.661721
2022-08-10T09:24:38.339Z,9.661814
2022-08-10T09:25:37.303Z,9.661731
2022-08-10T09:26:37.296Z,9.661573
2022-08-10T09:27:37.299Z,9.661664
2022-08-10T09:28:37.302Z,9.661722
2022-08-10T09:29:37.283Z,9.661726
2022-08-10T09:30:38.654Z,9.661681
2022-08-10T09:31:39.372Z,9.661760
2022-08-10T09:36:16.038Z,9.661695
2022-08-10T09:36:24.060Z,9.661931
2022-08-10T09:36:25.563Z,9.661716
2022-08-10T09:36:26.781Z,9.661940
2022-08-10T09:36:38.508Z,9.661883
2022-08-10T09:37:42.541Z,9.661888
2022-08-10T09:38:38.247Z,9.661764
2022-08-10T09:40:56.530Z,9.661750
2022-08-10T09:40:59.597Z,9.661743
2022-08-10T09:41:38.276Z,9.661841
2022-08-10T09:42:37.362Z,9.661684
2022-08-10T09:43:37.259Z,9.661753
2022-08-10T09:44:58.525Z,9.661771
2022-08-10T09:45:38.229Z,9.661741
2022-08-10T09:46:37.200Z,9.661636
2022-08-10T09:47:58.853Z,9.661729
2022-08-10T09:48:38.200Z,9.661763
2022-08-10T09:49:54.385Z,9.661814
2022-08-10T09:51:22.427Z,9.661772
2022-08-10T09:51:45.934Z,9.661651
2022-08-10T09:52:39.193Z,9.661736
2022-08-10T09:53:37.225Z,9.661699
2022-08-10T09:54:37.179Z,9.661663
2022-08-10T09:56:17.716Z,9.661726
2022-08-10T09:56:39.192Z,9.661793
2022-08-10T09:57:43.028Z,9.661686
2022-08-10T09:58:37.170Z,9.661649
2022-08-10T10:00:00.733Z,9.661727
2022-08-10T10:00:37.148Z,9.661712
2022-08-10T10:01:57.891Z,9.661674
2022-08-10T10:02:38.186Z,9.661733
2022-08-10T10:03:37.192Z,9.661675
2022-08-10T10:04:37.131Z,9.661650
2022-08-10T10:05:37.124Z,9.661618
2022-08-10T10:06:37.147Z,9.661600
2022-08-10T10:07:37.386Z,9.661549
2022-08-10T10:08:42.236Z,9.661527
2022-08-10T10:09:39.112Z,9.661513
2022-08-10T10:10:37.094Z,9.661489
2022-08-10T10:11:38.165Z,9.661508
2022-08-10T10:12:37.100Z,9.661505
2022-08-10T10:13:48.973Z,9.661530
2022-08-10T10:14:38.099Z,9.661506
2022-08-10T10:15:37.099Z,9.661453
2022-08-10T10:16:37.072Z,9.661453
2022-08-10T10:17:37.260Z,9.661531
2022-08-10T10:18:37.076Z,9.661441
2022-08-10T10:19:40.496Z,9.661508
2022-08-10T10:20:37.065Z,9.661471
2022-08-10T10:21:51.281Z,9.661491
2022-08-10T10:22:38.143Z,9.661492
2022-08-10T10:23:37.068Z,9.661490
2022-08-10T10:24:37.047Z,9.661496
2022-08-10T10:25:50.830Z,9.661524
2022-08-10T10:26:38.037Z,9.661538
2022-08-10T10:27:37.216Z,9.661494
2022-08-10T10:29:11.282Z,9.661519
2022-08-10T10:29:57.483Z,9.661514
2022-08-10T10:30:39.031Z,9.661528
2022-08-10T10:31:37.024Z,9.661538
2022-08-10T10:32:37.592Z,9.661527
2022-08-10T10:33:37.050Z,9.661543
2022-08-10T10:34:37.013Z,9.661521
2022-08-10T10:35:37.018Z,9.661474
2022-08-10T10:36:37.039Z,9.661443
2022-08-10T10:38:02.263Z,9.661519
2022-08-10T10:38:36.999Z,9.661494
2022-08-10T10:39:37.091Z,9.661510
2022-08-10T10:40:36.988Z,9.661504
2022-08-10T10:41:56.344Z,9.661504
2022-08-10T10:42:45.588Z,9.661468
2022-08-10T10:43:38.972Z,9.661453
2022-08-10T10:44:41.970Z,9.661422
2022-08-10T10:45:50.051Z,9.661515
2022-08-10T10:46:39.532Z,9.661478
2022-08-10T10:47:38.203Z,9.661534
2022-08-10T10:48:36.955Z,9.661587
2022-08-10T10:49:36.948Z,9.661525
2022-08-10T10:50:36.960Z,9.661551
2022-08-10T10:51:36.944Z,9.661530
2022-08-10T10:52:36.940Z,9.661612
2022-08-10T10:53:36.949Z,9.661587
2022-08-10T10:54:36.938Z,9.661451
2022-08-10T10:56:13.321Z,9.661619
2022-08-10T10:56:37.920Z,9.661622
2022-08-10T10:57:58.797Z,9.661672
2022-08-10T10:58:37.929Z,9.661571
2022-08-10T10:59:56.968Z,9.661580
2022-08-10T11:00:38.019Z,9.661479
2022-08-10T11:01:36.960Z,9.661528
2022-08-10T11:02:36.912Z,9.661626
2022-08-10T11:03:36.911Z,9.661674
2022-08-10T11:04:36.881Z,9.661724
2022-08-10T11:05:36.886Z,9.661633
2022-08-10T11:06:40.517Z,9.661539
2022-08-10T11:07:37.983Z,9.661566
2022-08-10T11:08:36.876Z,9.661544
2022-08-10T11:10:07.002Z,9.661569
2022-08-10T11:10:45.403Z,9.661377
2022-08-10T11:12:01.673Z,9.661431
2022-08-10T11:12:37.885Z,9.661372
2022-08-10T11:14:25.363Z,9.661538
2022-08-10T11:14:36.843Z,9.661735
2022-08-10T11:15:47.298Z,9.661623
2022-08-10T11:16:37.852Z,9.661534
2022-08-10T11:17:37.018Z,9.661461
2022-08-10T11:18:36.832Z,9.661454
2022-08-10T11:20:02.749Z,9.661507
2022-08-10T11:20:37.880Z,9.661554
2022-08-10T11:21:36.829Z,9.661630
2022-08-10T11:22:37.205Z,9.661592
2022-08-10T11:23:37.802Z,9.661596
2022-08-10T11:24:47.110Z,9.661549
2022-08-10T11:25:37.820Z,9.661534
2022-08-10T11:26:36.795Z,9.661489
2022-08-10T11:27:36.926Z,9.661461
2022-08-10T11:28:37.070Z,9.661453
2022-08-10T11:29:36.793Z,9.661406
2022-08-10T11:30:37.796Z,9.661388
2022-08-10T11:31:36.774Z,9.661444
2022-08-10T11:32:36.807Z,9.661502
2022-08-10T11:33:57.168Z,9.661533
2022-08-10T11:34:48.316Z,9.661502
2022-08-10T11:35:36.784Z,9.661402
2022-08-10T11:36:36.757Z,9.661497
2022-08-10T11:38:34.593Z,9.661506
2022-08-10T11:38:47.495Z,9.661448
2022-08-10T11:39:37.817Z,9.661388
2022-08-10T11:40:37.742Z,9.661495
2022-08-10T11:42:07.171Z,9.661448
2022-08-10T11:42:36.740Z,9.661429
2022-08-10T11:43:36.733Z,9.661368
2022-08-10T11:44:36.740Z,9.661311